sensor_id;sensor_type;location;lat;lon;timestamp;temperature;humidity
23813;DHT22;12087;45.190;5.688;2023-04-01T00:03:12;11.10;99.90
23813;DHT22;12087;45.190;5.688;2023-04-01T00:08:34;11.00;99.90
23813;DHT22;12087;45.190;5.688;2023-04-01T00:13:58;10.90;99.90
23813;DHT22;12087;45.190;5.688;2023-04-01T00:19:20;10.90;99.90
23813;DHT22;12087;45.190;5.688;2023-04-01T00:24:43;10.90;99.90
23813;DHT22;12087;45.190;5.688;2023-04-01T00:30:08;10.80;99.90
23813;DHT22;12087;45.190;5.688;2023-04-01T00:35:30;10.80;99.90
23813;DHT22;12087;45.190;5.688;2023-04-01T00:40:58;10.70;99.90
23813;DHT22;12087;45.190;5.688;2023-04-01T00:46:21;10.70;99.90
23813;DHT22;12087;45.190;5.688;2023-04-01T00:51:45;10.70;99.90
23813;DHT22;12087;45.190;5.688;2023-04-01T00:57:13;10.60;99.90
23813;DHT22;12087;45.190;5.688;2023-04-01T01:02:39;10.60;99.90
23813;DHT22;12087;45.190;5.688;2023-04-01T01:08:09;10.50;99.90
23813;DHT22;12087;45.190;5.688;2023-04-01T01:13:41;10.50;99.90
23813;DHT22;12087;45.190;5.688;2023-04-01T01:19:15;10.40;99.90
23813;DHT22;12087;45.190;5.688;2023-04-01T01:24:55;10.40;99.90
23813;DHT22;12087;45.190;5.688;2023-04-01T01:30:34;10.30;99.90
23813;DHT22;12087;45.190;5.688;2023-04-01T01:36:02;10.30;99.90
23813;DHT22;12087;45.190;5.688;2023-04-01T01:41:26;10.30;99.90
23813;DHT22;12087;45.190;5.688;2023-04-01T01:46:50;10.40;99.90
23813;DHT22;12087;45.190;5.688;2023-04-01T01:52:14;10.40;99.90
23813;DHT22;12087;45.190;5.688;2023-04-01T01:57:38;10.30;99.90
23813;DHT22;12087;45.190;5.688;2023-04-01T02:03:01;10.40;99.90
23813;DHT22;12087;45.190;5.688;2023-04-01T02:08:27;10.40;99.90
23813;DHT22;12087;45.190;5.688;2023-04-01T02:13:53;10.40;99.90
23813;DHT22;12087;45.190;5.688;2023-04-01T02:19:17;10.40;99.90
23813;DHT22;12087;45.190;5.688;2023-04-01T02:24:45;10.30;99.90
23813;DHT22;12087;45.190;5.688;2023-04-01T02:30:08;10.30;99.90
23813;DHT22;12087;45.190;5.688;2023-04-01T02:35:33;10.30;99.90
23813;DHT22;12087;45.190;5.688;2023-04-01T02:40:59;10.30;99.90
23813;DHT22;12087;45.190;5.688;2023-04-01T02:46:22;10.30;99.90
23813;DHT22;12087;45.190;5.688;2023-04-01T02:51:44;10.20;99.90
23813;DHT22;12087;45.190;5.688;2023-04-01T02:57:08;10.20;99.90
23813;DHT22;12087;45.190;5.688;2023-04-01T03:02:30;10.10;99.90
23813;DHT22;12087;45.190;5.688;2023-04-01T03:07:53;10.10;99.90
23813;DHT22;12087;45.190;5.688;2023-04-01T03:13:16;10.20;99.90
23813;DHT22;12087;45.190;5.688;2023-04-01T03:18:38;10.20;99.90
23813;DHT22;12087;45.190;5.688;2023-04-01T03:24:01;10.10;99.90
23813;DHT22;12087;45.190;5.688;2023-04-01T03:29:24;10.10;99.90
23813;DHT22;12087;45.190;5.688;2023-04-01T03:34:47;10.10;99.90
23813;DHT22;12087;45.190;5.688;2023-04-01T03:40:10;10.20;99.90
23813;DHT22;12087;45.190;5.688;2023-04-01T03:45:34;10.20;99.90
23813;DHT22;12087;45.190;5.688;2023-04-01T03:50:56;10.30;99.90
23813;DHT22;12087;45.190;5.688;2023-04-01T03:56:18;10.30;99.90
23813;DHT22;12087;45.190;5.688;2023-04-01T04:01:42;10.30;99.90
23813;DHT22;12087;45.190;5.688;2023-04-01T04:07:04;10.30;99.90
23813;DHT22;12087;45.190;5.688;2023-04-01T04:12:26;10.30;99.90
23813;DHT22;12087;45.190;5.688;2023-04-01T04:17:50;10.30;99.90
23813;DHT22;12087;45.190;5.688;2023-04-01T04:23:12;10.40;99.90
23813;DHT22;12087;45.190;5.688;2023-04-01T04:28:35;10.40;99.90
23813;DHT22;12087;45.190;5.688;2023-04-01T04:33:59;10.40;99.90
23813;DHT22;12087;45.190;5.688;2023-04-01T04:39:21;10.30;99.90
23813;DHT22;12087;45.190;5.688;2023-04-01T04:44:43;10.30;99.90
23813;DHT22;12087;45.190;5.688;2023-04-01T04:50:09;10.30;99.90
23813;DHT22;12087;45.190;5.688;2023-04-01T04:55:32;10.20;99.90
23813;DHT22;12087;45.190;5.688;2023-04-01T05:00:54;10.20;99.90
23813;DHT22;12087;45.190;5.688;2023-04-01T05:06:19;10.20;99.90
23813;DHT22;12087;45.190;5.688;2023-04-01T05:11:41;10.20;99.90
23813;DHT22;12087;45.190;5.688;2023-04-01T05:17:03;10.20;99.90
23813;DHT22;12087;45.190;5.688;2023-04-01T05:22:27;10.20;99.90
23813;DHT22;12087;45.190;5.688;2023-04-01T05:27:49;10.20;99.90
23813;DHT22;12087;45.190;5.688;2023-04-01T05:33:12;10.20;99.90
23813;DHT22;12087;45.190;5.688;2023-04-01T05:38:36;10.20;99.90
23813;DHT22;12087;45.190;5.688;2023-04-01T05:43:58;10.20;99.90
23813;DHT22;12087;45.190;5.688;2023-04-01T05:49:20;10.20;99.90
23813;DHT22;12087;45.190;5.688;2023-04-01T05:54:44;10.20;99.90
23813;DHT22;12087;45.190;5.688;2023-04-01T06:00:07;10.20;99.90
23813;DHT22;12087;45.190;5.688;2023-04-01T06:05:35;10.10;99.90
23813;DHT22;12087;45.190;5.688;2023-04-01T06:11:10;10.10;99.90
23813;DHT22;12087;45.190;5.688;2023-04-01T06:16:49;10.20;99.90
23813;DHT22;12087;45.190;5.688;2023-04-01T06:22:29;10.20;99.90
23813;DHT22;12087;45.190;5.688;2023-04-01T06:28:05;10.20;99.90
23813;DHT22;12087;45.190;5.688;2023-04-01T06:33:46;10.20;99.90
23813;DHT22;12087;45.190;5.688;2023-04-01T06:39:22;10.20;99.90
23813;DHT22;12087;45.190;5.688;2023-04-01T06:44:58;10.30;99.90
23813;DHT22;12087;45.190;5.688;2023-04-01T06:50:28;10.40;99.90
23813;DHT22;12087;45.190;5.688;2023-04-01T06:55:55;10.50;99.90
23813;DHT22;12087;45.190;5.688;2023-04-01T07:01:22;10.60;99.90
23813;DHT22;12087;45.190;5.688;2023-04-01T07:06:48;10.70;99.90
23813;DHT22;12087;45.190;5.688;2023-04-01T07:12:17;10.70;99.90
23813;DHT22;12087;45.190;5.688;2023-04-01T07:17:44;10.90;99.90
23813;DHT22;12087;45.190;5.688;2023-04-01T07:23:12;10.90;99.90
23813;DHT22;12087;45.190;5.688;2023-04-01T07:28:37;11.10;99.90
23813;DHT22;12087;45.190;5.688;2023-04-01T07:34:06;11.30;99.90
23813;DHT22;12087;45.190;5.688;2023-04-01T07:39:38;11.40;99.90
23813;DHT22;12087;45.190;5.688;2023-04-01T07:45:11;11.40;99.90
23813;DHT22;12087;45.190;5.688;2023-04-01T07:50:42;11.50;99.90
23813;DHT22;12087;45.190;5.688;2023-04-01T07:56:08;11.50;99.90
23813;DHT22;12087;45.190;5.688;2023-04-01T08:01:37;11.60;99.90
23813;DHT22;12087;45.190;5.688;2023-04-01T08:07:05;11.60;99.90
23813;DHT22;12087;45.190;5.688;2023-04-01T08:12:37;11.80;99.90
23813;DHT22;12087;45.190;5.688;2023-04-01T08:18:12;11.80;99.90
23813;DHT22;12087;45.190;5.688;2023-04-01T08:23:41;11.90;99.90
23813;DHT22;12087;45.190;5.688;2023-04-01T08:29:09;12.00;99.90
23813;DHT22;12087;45.190;5.688;2023-04-01T08:34:35;12.00;99.90
23813;DHT22;12087;45.190;5.688;2023-04-01T08:40:05;11.90;99.90
23813;DHT22;12087;45.190;5.688;2023-04-01T08:45:44;12.00;99.90
23813;DHT22;12087;45.190;5.688;2023-04-01T08:57:24;12.00;99.90
23813;DHT22;12087;45.190;5.688;2023-04-01T09:03:10;12.40;99.90
23813;DHT22;12087;45.190;5.688;2023-04-01T09:08:51;12.60;99.90
23813;DHT22;12087;45.190;5.688;2023-04-01T09:14:45;12.70;99.90
23813;DHT22;12087;45.190;5.688;2023-04-01T09:20:24;12.90;99.90
23813;DHT22;12087;45.190;5.688;2023-04-01T09:26:02;12.90;99.90
23813;DHT22;12087;45.190;5.688;2023-04-01T09:31:49;13.10;99.90
23813;DHT22;12087;45.190;5.688;2023-04-01T09:37:20;13.40;99.90
23813;DHT22;12087;45.190;5.688;2023-04-01T09:42:45;13.50;99.90
23813;DHT22;12087;45.190;5.688;2023-04-01T09:48:28;13.50;99.90
23813;DHT22;12087;45.190;5.688;2023-04-01T09:54:03;13.40;99.90
23813;DHT22;12087;45.190;5.688;2023-04-01T09:59:53;13.30;99.90
23813;DHT22;12087;45.190;5.688;2023-04-01T10:17:43;13.20;99.90
23813;DHT22;12087;45.190;5.688;2023-04-01T10:23:32;13.20;99.90
23813;DHT22;12087;45.190;5.688;2023-04-01T10:35:38;13.20;99.90
23813;DHT22;12087;45.190;5.688;2023-04-01T10:47:46;13.20;99.90
23813;DHT22;12087;45.190;5.688;2023-04-01T10:59:38;13.20;99.90
23813;DHT22;12087;45.190;5.688;2023-04-01T11:11:28;13.20;99.90
23813;DHT22;12087;45.190;5.688;2023-04-01T11:17:40;13.30;99.90
23813;DHT22;12087;45.190;5.688;2023-04-01T11:23:33;13.40;99.90
23813;DHT22;12087;45.190;5.688;2023-04-01T11:29:32;13.30;99.90
23813;DHT22;12087;45.190;5.688;2023-04-01T11:35:19;13.30;99.90
23813;DHT22;12087;45.190;5.688;2023-04-01T11:40:49;13.20;99.90
23813;DHT22;12087;45.190;5.688;2023-04-01T11:46:18;13.40;99.90
23813;DHT22;12087;45.190;5.688;2023-04-01T11:52:11;13.80;99.90
23813;DHT22;12087;45.190;5.688;2023-04-01T11:57:55;14.40;99.90
23813;DHT22;12087;45.190;5.688;2023-04-01T12:03:43;14.70;99.90
23813;DHT22;12087;45.190;5.688;2023-04-01T12:09:14;15.00;99.90
23813;DHT22;12087;45.190;5.688;2023-04-01T12:14:43;15.30;99.90
23813;DHT22;12087;45.190;5.688;2023-04-01T12:20:25;15.30;99.90
23813;DHT22;12087;45.190;5.688;2023-04-01T12:26:27;15.60;99.90
23813;DHT22;12087;45.190;5.688;2023-04-01T12:31:56;15.90;99.90
23813;DHT22;12087;45.190;5.688;2023-04-01T12:37:28;15.80;99.90
23813;DHT22;12087;45.190;5.688;2023-04-01T12:42:55;15.70;99.90
23813;DHT22;12087;45.190;5.688;2023-04-01T12:48:42;15.80;99.90
23813;DHT22;12087;45.190;5.688;2023-04-01T12:54:35;15.70;99.90
23813;DHT22;12087;45.190;5.688;2023-04-01T13:00:13;16.10;99.90
23813;DHT22;12087;45.190;5.688;2023-04-01T13:11:45;16.00;99.90
23813;DHT22;12087;45.190;5.688;2023-04-01T13:17:18;15.80;99.90
23813;DHT22;12087;45.190;5.688;2023-04-01T13:22:53;15.60;99.90
23813;DHT22;12087;45.190;5.688;2023-04-01T13:28:23;15.40;99.90
23813;DHT22;12087;45.190;5.688;2023-04-01T13:33:53;15.50;99.90
23813;DHT22;12087;45.190;5.688;2023-04-01T13:39:39;15.40;99.90
23813;DHT22;12087;45.190;5.688;2023-04-01T13:45:14;15.30;99.90
23813;DHT22;12087;45.190;5.688;2023-04-01T13:51:05;15.30;99.90
23813;DHT22;12087;45.190;5.688;2023-04-01T13:56:38;15.20;99.90
23813;DHT22;12087;45.190;5.688;2023-04-01T14:02:14;15.00;99.90
23813;DHT22;12087;45.190;5.688;2023-04-01T14:07:50;14.90;99.90
23813;DHT22;12087;45.190;5.688;2023-04-01T14:13:26;14.70;99.90
23813;DHT22;12087;45.190;5.688;2023-04-01T14:19:03;14.50;99.90
23813;DHT22;12087;45.190;5.688;2023-04-01T14:25:00;14.20;99.90
23813;DHT22;12087;45.190;5.688;2023-04-01T14:30:43;14.00;99.90
23813;DHT22;12087;45.190;5.688;2023-04-01T14:36:30;13.80;99.90
23813;DHT22;12087;45.190;5.688;2023-04-01T14:42:18;13.60;99.90
23813;DHT22;12087;45.190;5.688;2023-04-01T14:47:47;13.40;99.90
23813;DHT22;12087;45.190;5.688;2023-04-01T14:53:23;13.30;99.90
23813;DHT22;12087;45.190;5.688;2023-04-01T14:58:50;13.10;99.90
23813;DHT22;12087;45.190;5.688;2023-04-01T15:04:40;13.00;99.90
23813;DHT22;12087;45.190;5.688;2023-04-01T15:10:12;13.00;99.90
23813;DHT22;12087;45.190;5.688;2023-04-01T15:15:51;12.70;99.90
23813;DHT22;12087;45.190;5.688;2023-04-01T15:21:44;12.40;99.90
23813;DHT22;12087;45.190;5.688;2023-04-01T15:27:22;12.20;99.90
23813;DHT22;12087;45.190;5.688;2023-04-01T15:38:36;11.80;99.90
23813;DHT22;12087;45.190;5.688;2023-04-01T15:44:02;11.70;99.90
23813;DHT22;12087;45.190;5.688;2023-04-01T15:49:33;11.60;99.90
23813;DHT22;12087;45.190;5.688;2023-04-01T15:55:20;11.60;99.90
23813;DHT22;12087;45.190;5.688;2023-04-01T16:00:51;11.70;99.90
23813;DHT22;12087;45.190;5.688;2023-04-01T16:06:32;11.70;99.90
23813;DHT22;12087;45.190;5.688;2023-04-01T16:12:06;11.80;99.90
23813;DHT22;12087;45.190;5.688;2023-04-01T16:23:35;11.70;99.90
23813;DHT22;12087;45.190;5.688;2023-04-01T16:29:05;11.50;99.90
23813;DHT22;12087;45.190;5.688;2023-04-01T16:34:35;11.50;99.90
23813;DHT22;12087;45.190;5.688;2023-04-01T16:40:13;11.40;99.90
23813;DHT22;12087;45.190;5.688;2023-04-01T16:45:41;11.40;99.90
23813;DHT22;12087;45.190;5.688;2023-04-01T16:51:10;11.30;99.90
23813;DHT22;12087;45.190;5.688;2023-04-01T16:56:39;11.10;99.90
23813;DHT22;12087;45.190;5.688;2023-04-01T17:02:09;11.00;99.90
23813;DHT22;12087;45.190;5.688;2023-04-01T17:07:41;10.80;99.90
23813;DHT22;12087;45.190;5.688;2023-04-01T17:13:41;10.70;99.90
23813;DHT22;12087;45.190;5.688;2023-04-01T17:19:14;10.70;99.90
23813;DHT22;12087;45.190;5.688;2023-04-01T17:24:47;10.80;99.90
23813;DHT22;12087;45.190;5.688;2023-04-01T17:30:19;10.70;99.90
23813;DHT22;12087;45.190;5.688;2023-04-01T17:35:50;10.70;99.90
23813;DHT22;12087;45.190;5.688;2023-04-01T17:41:29;10.70;99.90
23813;DHT22;12087;45.190;5.688;2023-04-01T17:47:17;10.60;99.90
23813;DHT22;12087;45.190;5.688;2023-04-01T17:52:44;10.50;99.90
23813;DHT22;12087;45.190;5.688;2023-04-01T17:58:14;10.60;99.90
23813;DHT22;12087;45.190;5.688;2023-04-01T18:03:55;10.60;99.90
23813;DHT22;12087;45.190;5.688;2023-04-01T18:09:26;10.50;99.90
23813;DHT22;12087;45.190;5.688;2023-04-01T18:15:09;10.50;99.90
23813;DHT22;12087;45.190;5.688;2023-04-01T18:20:41;10.40;99.90
23813;DHT22;12087;45.190;5.688;2023-04-01T18:26:10;10.30;99.90
23813;DHT22;12087;45.190;5.688;2023-04-01T18:31:37;10.30;99.90
23813;DHT22;12087;45.190;5.688;2023-04-01T18:37:15;10.10;99.90
23813;DHT22;12087;45.190;5.688;2023-04-01T18:42:45;10.00;99.90
23813;DHT22;12087;45.190;5.688;2023-04-01T18:48:16;9.90;99.90
23813;DHT22;12087;45.190;5.688;2023-04-01T18:53:44;9.80;99.90
23813;DHT22;12087;45.190;5.688;2023-04-01T18:59:12;9.70;99.90
23813;DHT22;12087;45.190;5.688;2023-04-01T19:04:42;9.60;99.90
23813;DHT22;12087;45.190;5.688;2023-04-01T19:10:16;9.60;99.90
23813;DHT22;12087;45.190;5.688;2023-04-01T19:15:44;9.60;99.90
23813;DHT22;12087;45.190;5.688;2023-04-01T19:21:12;9.60;99.90
23813;DHT22;12087;45.190;5.688;2023-04-01T19:26:39;9.50;99.90
23813;DHT22;12087;45.190;5.688;2023-04-01T19:32:12;9.50;99.90
23813;DHT22;12087;45.190;5.688;2023-04-01T19:37:40;9.50;99.90
23813;DHT22;12087;45.190;5.688;2023-04-01T19:43:10;9.50;99.90
23813;DHT22;12087;45.190;5.688;2023-04-01T19:48:44;9.50;99.90
23813;DHT22;12087;45.190;5.688;2023-04-01T19:54:20;9.40;99.90
23813;DHT22;12087;45.190;5.688;2023-04-01T19:59:49;9.40;99.90
23813;DHT22;12087;45.190;5.688;2023-04-01T20:11:26;9.40;99.90
23813;DHT22;12087;45.190;5.688;2023-04-01T20:16:59;9.30;99.90
23813;DHT22;12087;45.190;5.688;2023-04-01T20:22:31;9.30;99.90
23813;DHT22;12087;45.190;5.688;2023-04-01T20:28:02;9.20;99.90
23813;DHT22;12087;45.190;5.688;2023-04-01T20:33:42;9.20;99.90
23813;DHT22;12087;45.190;5.688;2023-04-01T20:39:34;9.20;99.90
23813;DHT22;12087;45.190;5.688;2023-04-01T20:45:14;9.20;99.90
23813;DHT22;12087;45.190;5.688;2023-04-01T20:50:49;9.20;99.90
23813;DHT22;12087;45.190;5.688;2023-04-01T20:56:30;9.20;99.90
23813;DHT22;12087;45.190;5.688;2023-04-01T21:02:01;9.10;99.90
23813;DHT22;12087;45.190;5.688;2023-04-01T21:07:34;9.20;99.90
23813;DHT22;12087;45.190;5.688;2023-04-01T21:13:09;9.10;99.90
23813;DHT22;12087;45.190;5.688;2023-04-01T21:18:48;9.10;99.90
23813;DHT22;12087;45.190;5.688;2023-04-01T21:24:50;9.00;99.90
23813;DHT22;12087;45.190;5.688;2023-04-01T21:30:43;9.00;99.90
23813;DHT22;12087;45.190;5.688;2023-04-01T21:36:21;9.00;99.90
23813;DHT22;12087;45.190;5.688;2023-04-01T21:42:19;9.00;99.90
23813;DHT22;12087;45.190;5.688;2023-04-01T21:47:57;9.00;99.90
23813;DHT22;12087;45.190;5.688;2023-04-01T22:05:37;9.00;99.90
23813;DHT22;12087;45.190;5.688;2023-04-01T22:11:08;9.00;99.90
23813;DHT22;12087;45.190;5.688;2023-04-01T22:16:39;9.00;99.90
23813;DHT22;12087;45.190;5.688;2023-04-01T22:22:10;9.00;99.90
23813;DHT22;12087;45.190;5.688;2023-04-01T22:27:39;9.00;99.90
23813;DHT22;12087;45.190;5.688;2023-04-01T22:33:07;9.00;99.90
23813;DHT22;12087;45.190;5.688;2023-04-01T22:38:44;8.90;99.90
23813;DHT22;12087;45.190;5.688;2023-04-01T22:44:25;8.80;99.90
23813;DHT22;12087;45.190;5.688;2023-04-01T22:49:55;8.90;99.90
23813;DHT22;12087;45.190;5.688;2023-04-01T22:55:24;8.90;99.90
23813;DHT22;12087;45.190;5.688;2023-04-01T23:00:50;8.80;99.90
23813;DHT22;12087;45.190;5.688;2023-04-01T23:06:18;8.80;99.90
23813;DHT22;12087;45.190;5.688;2023-04-01T23:11:48;8.80;99.90
23813;DHT22;12087;45.190;5.688;2023-04-01T23:23:19;8.80;99.90
23813;DHT22;12087;45.190;5.688;2023-04-01T23:28:49;8.90;99.90
23813;DHT22;12087;45.190;5.688;2023-04-01T23:34:27;8.80;99.90
23813;DHT22;12087;45.190;5.688;2023-04-01T23:39:52;8.80;99.90
23813;DHT22;12087;45.190;5.688;2023-04-01T23:45:17;8.80;99.90
23813;DHT22;12087;45.190;5.688;2023-04-01T23:50:41;8.80;99.90
23813;DHT22;12087;45.190;5.688;2023-04-01T23:56:04;8.80;99.90
